createdAt,value
2022-08-17T00:00:01.455Z,68.08
2022-08-17T00:01:01.450Z,68.12
2022-08-17T00:02:01.538Z,68.59
2022-08-17T00:03:02.829Z,68.29
2022-08-17T00:04:01.367Z,67.49
2022-08-17T00:05:01.496Z,67.88
2022-08-17T00:06:01.373Z,68.89
2022-08-17T00:07:01.383Z,68.69
2022-08-17T00:08:01.365Z,67.92
2022-08-17T00:09:01.376Z,68.72
2022-08-17T00:10:01.349Z,68.02
2022-08-17T00:11:01.327Z,69.42
2022-08-17T00:12:40.866Z,69.46
2022-08-17T00:13:02.288Z,69.76
2022-08-17T00:14:01.267Z,69.62
2022-08-17T00:15:01.285Z,69.56
2022-08-17T00:16:01.269Z,69.12
2022-08-17T00:17:01.237Z,69.22
2022-08-17T00:18:01.234Z,69.32
2022-08-17T00:19:07.566Z,69.56
2022-08-17T00:20:02.231Z,70.09
2022-08-17T00:21:01.200Z,70.93
2022-08-17T00:22:29.917Z,70.83
2022-08-17T00:23:02.257Z,71.33
2022-08-17T00:24:01.183Z,70.83
2022-08-17T00:25:01.231Z,71.03
2022-08-17T00:26:01.153Z,71.03
2022-08-17T00:27:01.121Z,71.33
2022-08-17T00:28:01.138Z,71.30
2022-08-17T00:29:01.090Z,71.09
2022-08-17T00:30:01.114Z,70.39
2022-08-17T00:31:01.119Z,70.50
2022-08-17T00:32:01.101Z,70.26
2022-08-17T00:33:15.123Z,70.09
2022-08-17T00:34:02.137Z,69.96
2022-08-17T00:35:01.201Z,69.96
2022-08-17T00:36:01.074Z,69.96
2022-08-17T00:37:01.013Z,70.06
2022-08-17T00:38:01.028Z,69.46
2022-08-17T00:39:01.165Z,69.56
2022-08-17T00:40:01.007Z,69.66
2022-08-17T00:41:01.010Z,69.49
2022-08-17T00:42:01.060Z,69.79
2022-08-17T00:43:01.054Z,70.29
2022-08-17T00:44:00.973Z,71.00
2022-08-17T00:45:00.928Z,70.70
2022-08-17T00:46:00.938Z,70.39
2022-08-17T00:47:01.121Z,70.29
2022-08-17T00:48:00.955Z,70.46
2022-08-17T00:49:00.918Z,69.99
2022-08-17T00:50:01.061Z,69.89
2022-08-17T00:51:00.958Z,69.79
2022-08-17T00:52:00.852Z,70.09
2022-08-17T00:53:00.914Z,70.06
2022-08-17T00:54:00.918Z,69.89
2022-08-17T00:55:00.903Z,69.39
2022-08-17T00:56:00.847Z,69.29
2022-08-17T00:57:00.813Z,69.29
2022-08-17T00:58:00.906Z,68.79
2022-08-17T00:59:00.775Z,68.29
2022-08-17T01:00:02.450Z,68.18
2022-08-17T01:01:00.852Z,68.88
2022-08-17T01:02:00.858Z,69.49
2022-08-17T01:03:00.754Z,69.59
2022-08-17T01:04:00.727Z,69.72
2022-08-17T01:05:00.728Z,70.12
2022-08-17T01:06:00.723Z,69.82
2022-08-17T01:07:00.714Z,70.12
2022-08-17T01:08:00.746Z,70.12
2022-08-17T01:09:00.881Z,70.53
2022-08-17T01:10:00.646Z,70.32
2022-08-17T01:11:01.763Z,70.12
2022-08-17T01:12:01.659Z,70.12
2022-08-17T01:13:00.782Z,70.26
2022-08-17T01:14:00.740Z,70.12
2022-08-17T01:15:00.670Z,69.92
2022-08-17T01:16:00.674Z,70.12
2022-08-17T01:17:00.627Z,70.32
2022-08-17T01:18:00.603Z,70.32
2022-08-17T01:19:00.631Z,70.93
2022-08-17T01:20:00.572Z,70.86
2022-08-17T01:21:00.558Z,71.36
2022-08-17T01:22:00.523Z,71.40
2022-08-17T01:23:00.682Z,71.80
2022-08-17T01:24:01.222Z,71.80
2022-08-17T01:25:00.667Z,72.00
2022-08-17T01:26:00.507Z,72.00
2022-08-17T01:27:00.475Z,72.00
2022-08-17T01:28:00.514Z,71.80
2022-08-17T01:29:00.479Z,72.20
2022-08-17T01:30:00.519Z,72.50
2022-08-17T01:31:00.507Z,72.10
2022-08-17T01:32:00.428Z,71.80
2022-08-17T01:33:00.447Z,72.00
2022-08-17T01:34:00.603Z,71.70
2022-08-17T01:35:00.448Z,71.50
2022-08-17T01:36:00.467Z,71.50
2022-08-17T01:37:00.464Z,71.26
2022-08-17T01:38:00.406Z,71.36
2022-08-17T01:39:00.366Z,71.80
2022-08-17T01:40:00.475Z,72.64
2022-08-17T01:41:00.389Z,72.74
2022-08-17T01:42:00.374Z,72.84
2022-08-17T01:43:00.406Z,73.24
2022-08-17T01:44:00.437Z,73.31
2022-08-17T01:45:00.313Z,72.50
2022-08-17T01:46:03.164Z,72.44
2022-08-17T01:47:00.333Z,72.44
2022-08-17T01:48:00.264Z,72.50
2022-08-17T01:49:00.272Z,72.61
2022-08-17T01:50:00.289Z,73.24
2022-08-17T01:51:00.244Z,73.35
2022-08-17T01:52:00.248Z,74.05
2022-08-17T01:53:00.223Z,73.55
2022-08-17T01:54:00.204Z,73.44
2022-08-17T01:55:00.237Z,73.35
2022-08-17T01:56:00.197Z,73.65
2022-08-17T01:57:00.612Z,73.44
2022-08-17T01:58:00.224Z,73.14
2022-08-17T01:59:00.169Z,73.31
2022-08-17T02:00:00.162Z,72.41
2022-08-17T02:01:01.492Z,72.91
2022-08-17T02:02:00.136Z,73.51
2022-08-17T02:03:00.186Z,73.24
2022-08-17T02:04:01.638Z,73.48
2022-08-17T02:05:00.089Z,73.48
2022-08-17T02:06:00.087Z,73.38
2022-08-17T02:07:00.053Z,73.55
2022-08-17T02:08:00.914Z,73.35
2022-08-17T02:09:02.870Z,73.44
2022-08-17T02:10:00.077Z,73.65
2022-08-17T02:11:00.014Z,73.11
2022-08-17T02:12:00.001Z,73.51
2022-08-17T02:13:01.025Z,72.61
2022-08-17T02:14:03.225Z,72.84
2022-08-17T02:15:00.064Z,74.18
2022-08-17T02:15:59.969Z,74.73
2022-08-17T02:16:59.957Z,75.43
2022-08-17T02:17:59.961Z,75.43
2022-08-17T02:18:59.976Z,75.63
2022-08-17T02:19:59.955Z,77.42
2022-08-17T02:20:59.921Z,78.46
2022-08-17T02:21:59.882Z,78.76
2022-08-17T02:22:59.922Z,78.16
2022-08-17T02:23:59.898Z,77.92
2022-08-17T02:25:02.100Z,77.51
2022-08-17T02:26:00.865Z,77.98
2022-08-17T02:26:59.875Z,77.38
2022-08-17T02:27:59.849Z,76.77
2022-08-17T02:28:59.835Z,76.57
2022-08-17T02:29:59.828Z,76.64
2022-08-17T02:31:03.250Z,76.77
2022-08-17T02:31:59.822Z,76.87
2022-08-17T02:32:59.782Z,77.17
2022-08-17T02:34:03.874Z,77.08
2022-08-17T02:34:59.778Z,76.81
2022-08-17T02:35:59.758Z,77.08
2022-08-17T02:36:59.722Z,76.97
2022-08-17T02:37:59.734Z,76.97
2022-08-17T02:38:59.884Z,77.17
2022-08-17T02:39:59.946Z,76.47
2022-08-17T02:40:59.712Z,75.83
2022-08-17T02:41:59.660Z,75.63
2022-08-17T02:42:59.715Z,75.53
2022-08-17T02:43:59.666Z,74.93
2022-08-17T02:44:59.691Z,75.13
2022-08-17T02:45:59.660Z,75.29
2022-08-17T02:47:00.298Z,74.79
2022-08-17T02:47:59.600Z,73.88
2022-08-17T02:48:59.639Z,74.49
2022-08-17T02:49:59.599Z,73.88
2022-08-17T02:50:59.636Z,73.48
2022-08-17T02:51:59.570Z,73.68
2022-08-17T02:53:02.439Z,73.65
2022-08-17T02:54:39.267Z,73.38
2022-08-17T02:55:00.534Z,73.48
2022-08-17T02:56:00.552Z,73.48
2022-08-17T02:56:59.539Z,73.58
2022-08-17T02:57:59.508Z,73.58
2022-08-17T02:58:59.534Z,74.49
2022-08-17T02:59:59.533Z,74.52
2022-08-17T03:00:59.501Z,75.13
2022-08-17T03:01:59.566Z,74.82
2022-08-17T03:02:59.475Z,74.79
2022-08-17T03:03:59.452Z,74.58
2022-08-17T03:04:59.432Z,74.29
2022-08-17T03:05:59.432Z,74.89
2022-08-17T03:06:59.372Z,74.79
2022-08-17T03:07:59.418Z,74.79
2022-08-17T03:08:59.412Z,74.08
2022-08-17T03:09:59.362Z,73.88
2022-08-17T03:10:59.361Z,74.08
2022-08-17T03:11:59.316Z,74.29
2022-08-17T03:12:59.300Z,73.98
2022-08-17T03:13:59.347Z,74.18
2022-08-17T03:14:59.445Z,74.52
2022-08-17T03:15:59.314Z,74.29
2022-08-17T03:16:59.341Z,74.18
2022-08-17T03:17:59.250Z,74.69
2022-08-17T03:18:59.281Z,73.98
2022-08-17T03:19:59.298Z,74.73
2022-08-17T03:20:59.252Z,74.22
2022-08-17T03:21:59.256Z,74.42
2022-08-17T03:23:01.818Z,75.33
2022-08-17T03:23:59.230Z,75.13
2022-08-17T03:24:59.180Z,74.86
2022-08-17T03:25:59.228Z,75.02
2022-08-17T03:26:59.202Z,75.26
2022-08-17T03:27:59.162Z,74.82
2022-08-17T03:28:59.133Z,74.52
2022-08-17T03:29:59.149Z,74.52
2022-08-17T03:30:59.213Z,74.73
2022-08-17T03:31:59.153Z,74.62
2022-08-17T03:32:59.113Z,74.96
2022-08-17T03:33:59.093Z,74.93
2022-08-17T03:34:59.106Z,74.42
2022-08-17T03:35:59.110Z,74.52
2022-08-17T03:36:59.062Z,74.12
2022-08-17T03:38:01.088Z,74.26
2022-08-17T03:38:59.081Z,75.26
2022-08-17T03:39:59.077Z,75.26
2022-08-17T03:40:59.921Z,74.66
2022-08-17T03:41:59.014Z,74.82
2022-08-17T03:42:58.975Z,74.05
2022-08-17T03:43:58.978Z,74.42
2022-08-17T03:44:58.969Z,74.46
2022-08-17T03:45:58.975Z,74.52
2022-08-17T03:46:58.982Z,74.02
2022-08-17T03:47:58.909Z,75.02
2022-08-17T03:48:58.938Z,74.93
2022-08-17T03:49:58.930Z,75.46
2022-08-17T03:50:58.894Z,75.67
2022-08-17T03:51:58.917Z,75.46
2022-08-17T03:52:59.051Z,75.87
2022-08-17T03:53:58.898Z,75.87
2022-08-17T03:54:58.854Z,75.76
2022-08-17T03:55:58.834Z,75.76
2022-08-17T03:56:58.818Z,75.67
2022-08-17T03:57:58.832Z,75.87
2022-08-17T03:58:58.780Z,75.67
2022-08-17T03:59:58.810Z,75.76
2022-08-17T04:00:58.827Z,75.53
2022-08-17T04:01:58.786Z,75.87
2022-08-17T04:02:58.771Z,75.36
2022-08-17T04:03:58.770Z,75.73
2022-08-17T04:04:58.738Z,75.36
2022-08-17T04:05:58.740Z,75.67
2022-08-17T04:06:58.718Z,75.67
2022-08-17T04:07:58.891Z,75.63
2022-08-17T04:08:58.693Z,75.46
2022-08-17T04:09:58.684Z,75.56
2022-08-17T04:10:58.683Z,75.76
2022-08-17T04:12:02.246Z,75.43
2022-08-17T04:12:59.632Z,75.67
2022-08-17T04:13:58.649Z,75.96
2022-08-17T04:14:58.661Z,76.47
2022-08-17T04:15:58.608Z,77.11
2022-08-17T04:16:58.619Z,77.01
2022-08-17T04:17:58.600Z,77.15
2022-08-17T04:18:58.828Z,77.45
2022-08-17T04:19:58.551Z,77.51
2022-08-17T04:20:58.863Z,77.31
2022-08-17T04:21:58.604Z,77.72
2022-08-17T04:22:58.550Z,77.82
2022-08-17T04:23:58.513Z,77.51
2022-08-17T04:24:58.749Z,78.16
2022-08-17T04:25:58.501Z,77.04
2022-08-17T04:26:58.488Z,77.75
2022-08-17T04:27:58.466Z,78.36
2022-08-17T04:28:58.486Z,78.76
2022-08-17T04:29:58.446Z,79.06
2022-08-17T04:30:58.470Z,78.50
2022-08-17T04:31:58.424Z,79.64
2022-08-17T04:33:03.887Z,80.15
2022-08-17T04:33:58.429Z,80.90
2022-08-17T04:34:58.404Z,80.96
2022-08-17T04:35:58.382Z,80.96
2022-08-17T04:36:58.353Z,80.99
2022-08-17T04:37:58.352Z,81.26
2022-08-17T04:38:58.441Z,81.36
2022-08-17T04:40:03.387Z,80.96
2022-08-17T04:40:59.388Z,80.25
2022-08-17T04:41:58.299Z,80.41
2022-08-17T04:43:00.029Z,80.21
2022-08-17T04:43:58.299Z,79.27
2022-08-17T04:44:58.292Z,79.71
2022-08-17T04:45:58.282Z,79.21
2022-08-17T04:46:58.299Z,78.86
2022-08-17T04:47:58.248Z,78.96
2022-08-17T04:48:58.248Z,78.56
2022-08-17T04:49:58.228Z,78.66
2022-08-17T04:50:58.248Z,79.23
2022-08-17T04:52:00.105Z,78.32
2022-08-17T04:53:00.580Z,78.86
2022-08-17T04:53:58.176Z,78.56
2022-08-17T04:54:58.130Z,78.86
2022-08-17T04:55:58.153Z,78.63
2022-08-17T04:56:58.165Z,78.22
2022-08-17T04:57:58.156Z,77.68
2022-08-17T04:58:58.177Z,77.48
2022-08-17T04:59:58.125Z,76.97
2022-08-17T05:00:58.149Z,77.28
2022-08-17T05:01:58.152Z,77.84
2022-08-17T05:02:58.083Z,77.55
2022-08-17T05:03:58.060Z,77.04
2022-08-17T05:04:58.057Z,76.54
2022-08-17T05:05:58.049Z,76.50
2022-08-17T05:06:58.028Z,75.59
2022-08-17T05:07:58.009Z,75.70
2022-08-17T05:08:58.013Z,75.59
2022-08-17T05:09:57.973Z,75.86
2022-08-17T05:10:57.954Z,75.76
2022-08-17T05:11:58.049Z,75.86
2022-08-17T05:12:57.973Z,75.76
2022-08-17T05:13:57.974Z,75.56
2022-08-17T05:14:57.970Z,75.76
2022-08-17T05:15:57.964Z,75.35
2022-08-17T05:16:57.896Z,75.42
2022-08-17T05:17:57.907Z,75.42
2022-08-17T05:18:57.902Z,74.82
2022-08-17T05:19:57.866Z,74.72
2022-08-17T05:20:57.885Z,74.62
2022-08-17T05:21:57.854Z,74.82
2022-08-17T05:22:57.850Z,74.52
2022-08-17T05:23:57.850Z,74.92
2022-08-17T05:24:57.865Z,74.82
2022-08-17T05:25:57.847Z,74.52
2022-08-17T05:27:01.374Z,74.62
2022-08-17T05:27:58.810Z,74.72
2022-08-17T05:28:59.405Z,74.62
2022-08-17T05:29:57.779Z,74.52
2022-08-17T05:30:58.742Z,74.52
2022-08-17T05:31:57.703Z,74.21
2022-08-17T05:32:57.727Z,73.98
2022-08-17T05:33:58.108Z,73.47
2022-08-17T05:34:57.779Z,73.58
2022-08-17T05:35:57.691Z,73.78
2022-08-17T05:36:57.719Z,73.68
2022-08-17T05:37:57.691Z,73.44
2022-08-17T05:38:57.652Z,73.47
2022-08-17T05:39:57.808Z,73.47
2022-08-17T05:40:57.706Z,73.58
2022-08-17T05:41:57.775Z,73.58
2022-08-17T05:42:57.723Z,73.74
2022-08-17T05:43:58.250Z,73.47
2022-08-17T05:44:57.670Z,73.38
2022-08-17T05:45:57.631Z,73.44
2022-08-17T05:46:57.689Z,73.44
2022-08-17T05:47:58.120Z,73.64
2022-08-17T05:48:57.619Z,73.94
2022-08-17T05:49:57.559Z,73.24
2022-08-17T05:50:58.279Z,73.34
2022-08-17T05:51:57.581Z,73.24
2022-08-17T05:52:58.096Z,73.24
2022-08-17T05:53:57.481Z,73.64
2022-08-17T05:54:57.511Z,73.21
2022-08-17T05:55:57.529Z,73.21
2022-08-17T05:56:57.585Z,72.71
2022-08-17T05:57:57.473Z,72.71
2022-08-17T05:58:57.416Z,72.80
2022-08-17T05:59:58.413Z,72.71
2022-08-17T06:00:57.456Z,73.30
2022-08-17T06:01:57.467Z,72.80
2022-08-17T06:02:57.405Z,72.71
2022-08-17T06:03:57.453Z,72.77
2022-08-17T06:04:57.375Z,73.17
2022-08-17T06:05:57.450Z,72.67
2022-08-17T06:06:57.376Z,73.47
2022-08-17T06:07:57.392Z,73.71
2022-08-17T06:08:57.321Z,74.11
2022-08-17T06:09:57.375Z,74.01
2022-08-17T06:10:57.294Z,73.57
2022-08-17T06:11:58.784Z,73.61
2022-08-17T06:12:57.309Z,73.57
2022-08-17T06:13:57.272Z,73.37
2022-08-17T06:14:57.263Z,72.63
2022-08-17T06:15:57.298Z,72.43
2022-08-17T06:16:57.297Z,72.20
2022-08-17T06:17:57.297Z,72.00
2022-08-17T06:18:57.286Z,71.80
2022-08-17T06:19:57.253Z,71.39
2022-08-17T06:20:57.204Z,71.36
2022-08-17T06:21:57.257Z,71.26
2022-08-17T06:22:57.250Z,71.36
2022-08-17T06:23:57.128Z,71.46
2022-08-17T06:24:57.176Z,71.03
2022-08-17T06:25:57.218Z,71.12
2022-08-17T06:26:57.175Z,70.53
2022-08-17T06:27:57.152Z,70.73
2022-08-17T06:28:57.118Z,70.93
2022-08-17T06:29:57.155Z,71.09
2022-08-17T06:31:00.082Z,70.69
2022-08-17T06:31:57.112Z,69.69
2022-08-17T06:32:57.233Z,69.79
2022-08-17T06:33:57.081Z,70.09
2022-08-17T06:34:57.069Z,69.99
2022-08-17T06:35:57.032Z,69.29
2022-08-17T06:36:57.046Z,69.29
2022-08-17T06:37:57.071Z,68.79
2022-08-17T06:38:57.067Z,68.19
2022-08-17T06:39:57.086Z,68.55
2022-08-17T06:40:56.981Z,67.66
2022-08-17T06:41:57.001Z,67.76
2022-08-17T06:43:06.758Z,67.96
2022-08-17T06:43:57.961Z,68.36
2022-08-17T06:44:56.978Z,68.73
2022-08-17T06:45:56.954Z,67.93
2022-08-17T06:46:57.015Z,67.93
2022-08-17T06:47:58.012Z,67.79
2022-08-17T06:48:56.946Z,67.40
2022-08-17T06:49:56.963Z,69.29
2022-08-17T06:50:56.946Z,67.79
2022-08-17T06:51:56.898Z,67.09
2022-08-17T06:52:57.090Z,66.96
2022-08-17T06:53:56.865Z,67.96
2022-08-17T06:54:57.089Z,67.66
2022-08-17T06:55:56.871Z,65.73
2022-08-17T06:56:56.798Z,65.53
2022-08-17T06:57:56.814Z,65.83
2022-08-17T06:58:56.783Z,65.63
2022-08-17T06:59:56.829Z,65.73
2022-08-17T07:00:58.841Z,65.73
2022-08-17T07:01:56.771Z,65.73
2022-08-17T07:02:56.782Z,65.53
2022-08-17T07:03:56.726Z,65.43
2022-08-17T07:04:56.791Z,65.33
2022-08-17T07:05:56.699Z,65.43
2022-08-17T07:06:56.722Z,65.73
2022-08-17T07:07:56.692Z,65.10
2022-08-17T07:08:56.683Z,65.13
2022-08-17T07:09:56.710Z,65.40
2022-08-17T07:10:56.629Z,65.17
2022-08-17T07:11:56.662Z,64.77
2022-08-17T07:12:56.719Z,64.77
2022-08-17T07:13:56.575Z,65.47
2022-08-17T07:14:56.699Z,64.87
2022-08-17T07:15:57.583Z,64.64
2022-08-17T07:16:56.723Z,64.14
2022-08-17T07:17:56.550Z,64.47
2022-08-17T07:18:56.595Z,64.14
2022-08-17T07:19:56.618Z,63.74
2022-08-17T07:20:56.503Z,63.34
2022-08-17T07:21:56.546Z,64.44
2022-08-17T07:22:59.638Z,64.44
2022-08-17T07:23:56.516Z,65.04
2022-08-17T07:24:56.691Z,64.64
2022-08-17T07:25:56.473Z,64.44
2022-08-17T07:26:56.519Z,63.84
2022-08-17T07:27:57.147Z,64.74
2022-08-17T07:28:56.443Z,64.74
2022-08-17T07:29:56.496Z,64.87
2022-08-17T07:30:56.481Z,64.74
2022-08-17T07:31:56.408Z,64.74
2022-08-17T07:32:56.360Z,65.04
2022-08-17T07:33:56.420Z,64.51
2022-08-17T07:34:56.397Z,65.01
2022-08-17T07:35:56.413Z,64.21
2022-08-17T07:36:56.371Z,63.68
2022-08-17T07:37:56.325Z,63.05
2022-08-17T07:38:56.333Z,62.42
2022-08-17T07:40:15.364Z,61.99
2022-08-17T07:40:57.313Z,61.47
2022-08-17T07:41:57.730Z,61.64
2022-08-17T07:42:56.405Z,60.12
2022-08-17T07:43:56.281Z,60.28
2022-08-17T07:45:28.618Z,59.04
2022-08-17T07:45:56.354Z,58.32
2022-08-17T07:46:56.277Z,58.09
2022-08-17T07:47:56.244Z,56.48
2022-08-17T07:48:56.413Z,56.13
2022-08-17T07:49:56.289Z,55.30
2022-08-17T07:50:56.318Z,54.79
2022-08-17T07:51:56.677Z,53.57
2022-08-17T07:52:56.220Z,51.67
2022-08-17T07:54:09.125Z,51.94
2022-08-17T07:54:58.140Z,50.83
2022-08-17T07:55:57.145Z,50.43
2022-08-17T07:56:56.155Z,50.04
2022-08-17T07:57:56.137Z,50.63
2022-08-17T07:58:56.086Z,50.24
2022-08-17T07:59:56.714Z,50.34
2022-08-17T08:00:56.454Z,51.45
2022-08-17T08:01:56.293Z,51.05
2022-08-17T08:02:56.278Z,51.94
2022-08-17T08:03:56.060Z,51.79
2022-08-17T08:05:01.021Z,52.12
2022-08-17T08:05:58.221Z,53.65
2022-08-17T08:06:56.990Z,53.16
2022-08-17T08:07:56.225Z,53.97
2022-08-17T08:08:55.993Z,55.29
2022-08-17T08:09:55.966Z,54.89
2022-08-17T08:10:55.950Z,53.80
2022-08-17T08:11:55.953Z,54.13
2022-08-17T08:12:55.954Z,54.92
2022-08-17T08:13:56.106Z,54.72
2022-08-17T08:14:55.903Z,55.32
2022-08-17T08:15:56.445Z,54.02
2022-08-17T08:16:57.226Z,55.51
2022-08-17T08:17:56.006Z,55.51
2022-08-17T08:18:57.579Z,54.82
2022-08-17T08:19:56.857Z,54.92
2022-08-17T08:20:55.893Z,54.72
2022-08-17T08:21:56.069Z,54.99
2022-08-17T08:22:56.126Z,55.39
2022-08-17T08:23:55.923Z,53.80
2022-08-17T08:24:55.977Z,54.30
2022-08-17T08:25:56.109Z,54.20
2022-08-17T08:26:55.737Z,53.97
2022-08-17T08:27:55.746Z,53.18
2022-08-17T08:28:55.879Z,53.58
2022-08-17T08:29:55.910Z,53.28
2022-08-17T08:30:56.166Z,53.35
2022-08-17T08:31:55.820Z,53.16
2022-08-17T08:32:57.346Z,52.26
2022-08-17T08:33:55.939Z,52.26
2022-08-17T08:35:02.074Z,51.89
2022-08-17T08:35:57.018Z,53.08
2022-08-17T08:37:14.337Z,52.39
2022-08-17T08:37:56.822Z,52.29
2022-08-17T08:38:55.962Z,51.60
2022-08-17T08:39:55.791Z,51.30
2022-08-17T08:40:56.214Z,51.37
2022-08-17T08:41:55.749Z,51.37
2022-08-17T08:42:55.657Z,51.37
2022-08-17T08:43:55.662Z,51.07
2022-08-17T08:44:59.738Z,51.57
2022-08-17T08:45:56.898Z,51.84
2022-08-17T08:46:55.602Z,51.65
2022-08-17T08:47:55.626Z,51.94
2022-08-17T08:48:57.825Z,51.72
2022-08-17T08:50:04.783Z,52.01
2022-08-17T08:50:57.658Z,51.62
2022-08-17T08:51:55.533Z,51.40
2022-08-17T08:52:55.682Z,49.22
2022-08-17T08:53:55.485Z,49.32
2022-08-17T08:54:55.495Z,50.21
2022-08-17T08:55:55.704Z,49.82
2022-08-17T08:57:22.256Z,49.02
2022-08-17T08:57:57.823Z,49.22
2022-08-17T08:58:55.624Z,49.02
2022-08-17T08:59:58.166Z,49.20
2022-08-17T09:00:55.580Z,50.09
2022-08-17T09:01:55.525Z,50.19
2022-08-17T09:02:55.428Z,48.11
2022-08-17T09:04:06.603Z,47.79
2022-08-17T09:05:13.798Z,49.67
2022-08-17T09:05:57.482Z,45.79
2022-08-17T09:06:56.165Z,46.81
2022-08-17T09:07:57.415Z,47.77
2022-08-17T09:08:55.355Z,48.16
2022-08-17T09:09:59.145Z,47.94
2022-08-17T09:10:56.363Z,47.35
2022-08-17T09:12:01.112Z,46.84
2022-08-17T09:12:55.535Z,46.74
2022-08-17T09:13:55.606Z,46.81
2022-08-17T09:14:55.232Z,45.46
2022-08-17T09:15:55.308Z,46.54
2022-08-17T09:16:55.632Z,47.16
2022-08-17T09:18:21.413Z,47.25
2022-08-17T09:19:00.310Z,46.66
2022-08-17T09:19:56.240Z,47.03
2022-08-17T09:20:55.276Z,46.03
2022-08-17T09:21:55.177Z,44.27
2022-08-17T09:22:55.286Z,45.67
2022-08-17T09:23:55.276Z,47.25
2022-08-17T09:24:55.159Z,47.06
2022-08-17T09:25:55.116Z,46.86
2022-08-17T09:26:55.276Z,45.85
2022-08-17T09:27:55.136Z,43.98
2022-08-17T09:28:55.076Z,43.98
2022-08-17T09:29:56.890Z,44.79
2022-08-17T09:30:55.434Z,46.07
2022-08-17T09:31:55.204Z,45.57
2022-08-17T09:32:55.257Z,45.87
2022-08-17T09:33:55.174Z,45.85
2022-08-17T09:34:55.100Z,45.36
2022-08-17T09:35:55.061Z,44.65
2022-08-17T09:36:55.022Z,44.72
2022-08-17T09:37:55.221Z,44.92
2022-08-17T09:38:54.987Z,44.60
2022-08-17T09:39:55.000Z,43.32
2022-08-17T09:40:55.115Z,43.52
2022-08-17T09:41:54.951Z,42.63
2022-08-17T09:42:54.928Z,42.93
2022-08-17T09:43:54.903Z,40.56
2022-08-17T09:44:54.920Z,42.83
2022-08-17T09:45:54.868Z,40.84
2022-08-17T09:46:54.867Z,40.35
2022-08-17T09:47:54.856Z,40.90
2022-08-17T09:48:54.860Z,40.00
2022-08-17T09:49:54.852Z,38.13
2022-08-17T09:50:55.516Z,40.51
2022-08-17T09:51:55.888Z,40.51
2022-08-17T09:52:54.830Z,40.61
2022-08-17T09:53:54.865Z,40.80
2022-08-17T09:54:54.797Z,40.70
2022-08-17T09:55:54.780Z,39.70
2022-08-17T09:57:11.896Z,39.78
2022-08-17T09:57:56.762Z,38.19
2022-08-17T09:58:54.762Z,38.66
2022-08-17T09:59:54.725Z,38.68
2022-08-17T10:00:54.767Z,38.39
2022-08-17T10:01:54.748Z,39.47
2022-08-17T10:02:54.716Z,39.17
2022-08-17T10:03:54.695Z,39.66
2022-08-17T10:04:54.720Z,40.55
2022-08-17T10:05:56.343Z,39.76
2022-08-17T10:06:54.668Z,40.06
2022-08-17T10:07:54.726Z,39.86
2022-08-17T10:08:54.656Z,39.66
2022-08-17T10:09:54.621Z,39.58
2022-08-17T10:10:56.592Z,38.74
2022-08-17T10:11:54.672Z,39.82
2022-08-17T10:12:54.624Z,40.72
2022-08-17T10:13:55.578Z,40.62
2022-08-17T10:14:55.131Z,40.43
2022-08-17T10:15:54.548Z,40.45
2022-08-17T10:16:54.560Z,40.94
2022-08-17T10:17:54.533Z,41.04
2022-08-17T10:18:54.573Z,40.94
2022-08-17T10:19:54.508Z,40.82
2022-08-17T10:20:54.497Z,41.22
2022-08-17T10:22:00.637Z,40.45
2022-08-17T10:22:56.114Z,40.94
2022-08-17T10:23:54.494Z,41.90
2022-08-17T10:25:21.197Z,40.92
2022-08-17T10:25:56.015Z,40.45
2022-08-17T10:26:56.380Z,41.16
2022-08-17T10:27:54.458Z,40.86
2022-08-17T10:28:54.445Z,42.73
2022-08-17T10:29:54.429Z,41.06
2022-08-17T10:31:10.395Z,41.53
2022-08-17T10:31:56.401Z,42.02
2022-08-17T10:32:54.366Z,41.02
2022-08-17T10:33:54.414Z,39.62
2022-08-17T10:34:54.361Z,40.70
2022-08-17T10:35:57.210Z,40.82
2022-08-17T10:36:54.521Z,40.92
2022-08-17T10:37:54.331Z,42.28
2022-08-17T10:38:54.302Z,40.78
2022-08-17T10:39:54.404Z,40.01
2022-08-17T10:40:54.296Z,41.09
2022-08-17T10:41:54.263Z,40.82
2022-08-17T10:42:54.269Z,41.51
2022-08-17T10:44:37.399Z,40.62
2022-08-17T10:44:55.286Z,41.71
2022-08-17T10:46:27.642Z,41.41
2022-08-17T10:46:55.246Z,40.92
2022-08-17T10:47:55.709Z,41.02
2022-08-17T10:48:55.366Z,40.72
2022-08-17T10:49:54.524Z,41.63
2022-08-17T10:50:54.363Z,40.74
2022-08-17T10:51:54.216Z,40.84
2022-08-17T10:52:54.171Z,41.53
2022-08-17T10:53:54.166Z,40.84
2022-08-17T10:54:57.907Z,40.64
2022-08-17T10:55:54.186Z,41.25
2022-08-17T10:56:54.771Z,41.75
2022-08-17T10:57:54.245Z,41.75
2022-08-17T10:58:54.176Z,42.24
2022-08-17T10:59:54.116Z,43.03
2022-08-17T11:00:54.246Z,42.34
2022-08-17T11:01:57.495Z,42.07
2022-08-17T11:02:54.297Z,42.95
2022-08-17T11:03:54.119Z,43.44
2022-08-17T11:04:54.364Z,42.95
2022-08-17T11:05:54.156Z,42.07
2022-08-17T11:06:54.091Z,40.58
2022-08-17T11:07:54.043Z,41.17
2022-08-17T11:08:54.028Z,41.16
2022-08-17T11:09:54.001Z,41.75
2022-08-17T11:10:54.005Z,42.04
2022-08-17T11:11:54.043Z,41.14
2022-08-17T11:12:53.991Z,41.53
2022-08-17T11:13:53.973Z,41.51
2022-08-17T11:14:56.192Z,42.91
2022-08-17T11:15:58.772Z,43.01
2022-08-17T11:16:54.157Z,42.61
2022-08-17T11:17:54.229Z,41.14
2022-08-17T11:18:54.020Z,41.16
2022-08-17T11:19:54.153Z,41.94
2022-08-17T11:20:54.133Z,41.55
2022-08-17T11:21:53.927Z,41.45
2022-08-17T11:22:53.885Z,41.75
2022-08-17T11:23:53.857Z,42.54
2022-08-17T11:24:54.006Z,43.13
2022-08-17T11:25:53.845Z,42.95
2022-08-17T11:26:53.814Z,42.73
2022-08-17T11:27:54.001Z,42.83
2022-08-17T11:28:53.800Z,42.34
2022-08-17T11:29:58.094Z,42.63
2022-08-17T11:30:55.786Z,42.83
2022-08-17T11:31:53.813Z,42.93
2022-08-17T11:32:54.977Z,42.73
2022-08-17T11:33:53.879Z,42.63
2022-08-17T11:34:57.497Z,42.73
2022-08-17T11:35:56.606Z,42.54
2022-08-17T11:36:55.309Z,43.15
2022-08-17T11:37:54.201Z,43.34
2022-08-17T11:38:53.716Z,43.84
2022-08-17T11:39:53.817Z,43.44
2022-08-17T11:40:54.118Z,44.13
2022-08-17T11:41:53.692Z,43.46
2022-08-17T11:42:53.658Z,43.96
2022-08-17T11:43:54.618Z,44.15
2022-08-17T11:44:53.816Z,43.96
2022-08-17T11:45:53.742Z,44.35
2022-08-17T11:46:53.654Z,44.25
2022-08-17T11:48:23.755Z,44.84
2022-08-17T11:48:54.637Z,44.55
2022-08-17T11:49:53.622Z,45.04
2022-08-17T11:50:53.670Z,45.04
2022-08-17T11:51:54.597Z,44.96
2022-08-17T11:52:53.605Z,44.74
2022-08-17T11:54:08.742Z,45.43
2022-08-17T11:55:07.591Z,45.73
2022-08-17T11:55:54.569Z,46.22
2022-08-17T11:56:53.489Z,46.25
2022-08-17T11:57:53.485Z,45.93
2022-08-17T11:58:53.563Z,45.65
2022-08-17T11:59:53.465Z,45.75
2022-08-17T12:00:53.473Z,45.95
2022-08-17T12:01:54.186Z,46.15
2022-08-17T12:02:54.283Z,45.95
2022-08-17T12:03:54.209Z,45.95
2022-08-17T12:04:53.550Z,45.95
2022-08-17T12:05:53.409Z,44.57
2022-08-17T12:06:53.425Z,44.87
2022-08-17T12:07:53.450Z,44.89
2022-08-17T12:08:55.142Z,44.79
2022-08-17T12:09:53.330Z,44.49
2022-08-17T12:10:53.422Z,44.69
2022-08-17T12:11:58.683Z,43.80
2022-08-17T12:12:54.317Z,44.20
2022-08-17T12:13:53.311Z,44.22
2022-08-17T12:15:55.285Z,43.92
2022-08-17T12:16:53.254Z,44.12
2022-08-17T12:17:53.573Z,44.42
2022-08-17T12:18:53.354Z,43.62
2022-08-17T12:19:53.279Z,43.52
2022-08-17T12:20:56.615Z,43.43
2022-08-17T12:21:54.196Z,44.61
2022-08-17T12:22:54.144Z,44.81
2022-08-17T12:23:53.746Z,45.70
2022-08-17T12:24:53.171Z,45.50
2022-08-17T12:25:53.262Z,45.42
2022-08-17T12:26:53.263Z,44.93
2022-08-17T12:28:06.631Z,45.92
2022-08-17T12:28:54.154Z,45.92
2022-08-17T12:29:53.108Z,45.62
2022-08-17T12:30:53.116Z,46.01
2022-08-17T12:31:53.403Z,45.92
2022-08-17T12:32:53.086Z,46.81
2022-08-17T12:33:53.087Z,46.01
2022-08-17T12:34:53.099Z,46.01
2022-08-17T12:35:57.481Z,45.82
2022-08-17T12:36:55.083Z,47.00
2022-08-17T12:37:53.087Z,46.70
2022-08-17T12:38:53.067Z,47.10
2022-08-17T12:39:53.084Z,45.82
2022-08-17T12:40:53.082Z,46.01
2022-08-17T12:41:53.015Z,46.01
2022-08-17T12:42:53.019Z,46.70
2022-08-17T12:43:52.979Z,47.20
2022-08-17T12:44:53.024Z,47.99
2022-08-17T12:45:53.088Z,47.00
2022-08-17T12:46:53.323Z,47.20
2022-08-17T12:47:52.976Z,47.52
2022-08-17T12:48:58.998Z,46.93
2022-08-17T12:49:54.552Z,47.10
2022-08-17T12:50:53.112Z,47.62
2022-08-17T12:51:52.874Z,47.22
2022-08-17T12:52:52.939Z,46.61